Terminal Aerodrome Forecast
Issued by NWS

Home | Current Version | Previous Version | Text Only | Print | Product List | Glossary On
Versions: 1 2 3 4 5 6 7 8 9 10 11 12 13 14 15 16 17 18 19 20 21 22 23 24 25 26 27 28 29 30 31 32 33 34 35 36 37 38 39 40
430
FTUS46 KLOX 220705 AAB
TAFOXR
TAF AMD
KOXR 220705Z 2207/2306 27008KT 6SM BR SCT005 OVC120
     FM221200 31005KT 6SM BR OVC012
     FM221700 28010KT P6SM SCT025 SCT050
     FM222000 28015G25KT P6SM FEW025 SCT050
     FM222300 28020G30KT P6SM SCT050
     FM230300 30015KT P6SM SKC=

USA.gov is the U.S. government's official web portal to all federal, state and local government web resources and services.